Time;durP1;ratioP1;P1;durP2;ratioP2;P2;SDS_P1;SDS_P2;PMS_P1;PMS_P2;Temp;Humidity;BMP_temperature;BMP_pressure;BME280_temperature;BME280_humidity;BME280_pressure;Samples;Min_cycle;Max_cycle;Signal;HPM_P1;HPM_P2
2022/04/15 00:02:01;;;;;;;1.93;1.63;;;13.20;99.90;;;;;;5148490;27;20629;-83
2022/04/15 00:04:29;;;;;;;2.20;1.67;;;13.20;99.90;;;;;;5144308;27;20623;-83
2022/04/15 00:06:55;;;;;;;1.40;1.23;;;13.20;99.90;;;;;;5144425;27;20653;-84
2022/04/15 00:09:23;;;;;;;7.17;1.47;;;13.20;99.90;;;;;;5145062;27;20625;-83
2022/04/15 00:11:51;;;;;;;3.17;1.97;;;13.30;99.90;;;;;;5144383;27;20625;-83
2022/04/15 00:14:18;;;;;;;1.30;1.20;;;13.20;99.90;;;;;;5146183;27;21144;-83
2022/04/15 00:16:45;;;;;;;1.90;1.50;;;13.20;99.90;;;;;;5141330;27;20690;-84
2022/04/15 00:19:13;;;;;;;2.13;1.73;;;13.10;99.90;;;;;;5139311;27;20625;-83
2022/04/15 00:21:40;;;;;;;2.57;1.67;;;13.20;99.90;;;;;;5144322;27;20617;-83
2022/04/15 00:24:07;;;;;;;2.10;1.83;;;13.20;99.90;;;;;;5140142;27;20645;-83
2022/04/15 00:26:35;;;;;;;2.40;1.83;;;13.20;99.90;;;;;;5145503;27;20657;-83
2022/04/15 00:29:05;;;;;;;2.60;1.70;;;13.30;99.90;;;;;;5144920;27;20621;-84
2022/04/15 00:31:33;;;;;;;4.77;2.10;;;13.30;99.90;;;;;;5142894;27;21063;-83
2022/04/15 00:33:59;;;;;;;4.47;2.70;;;13.40;99.90;;;;;;5144514;27;20628;-84
2022/04/15 00:36:26;;;;;;;5.73;2.83;;;13.40;99.90;;;;;;5141446;27;20632;-83
2022/04/15 00:38:53;;;;;;;4.73;3.20;;;13.50;99.90;;;;;;5139962;27;20628;-85
2022/04/15 00:41:19;;;;;;;2.23;2.07;;;13.50;99.90;;;;;;5144044;27;20649;-82
2022/04/15 00:43:47;;;;;;;3.10;2.13;;;13.50;99.90;;;;;;5143525;27;20632;-82
2022/04/15 00:46:14;;;;;;;5.90;2.90;;;13.50;99.90;;;;;;5141732;27;20672;-82
2022/04/15 00:48:41;;;;;;;4.03;2.03;;;13.50;99.90;;;;;;5145084;27;20617;-83
2022/04/15 00:51:08;;;;;;;2.97;2.17;;;13.50;99.90;;;;;;5139776;27;20687;-82
2022/04/15 00:53:40;;;;;;;2.47;2.10;;;13.50;99.90;;;;;;5143183;27;20640;-82
2022/04/15 00:56:09;;;;;;;2.03;1.83;;;13.50;99.90;;;;;;5145022;27;20649;-83
2022/04/15 00:58:38;;;;;;;2.40;2.20;;;13.50;99.90;;;;;;5143929;27;20621;-83
2022/04/15 01:01:07;;;;;;;3.73;2.33;;;13.50;99.90;;;;;;5140696;27;20656;-83
2022/04/15 01:03:36;;;;;;;2.43;2.23;;;13.50;99.90;;;;;;5141907;27;21206;-82
2022/04/15 01:06:06;;;;;;;3.60;2.13;;;13.60;99.90;;;;;;5139791;27;20668;-82
2022/04/15 01:08:37;;;;;;;2.20;2.00;;;13.50;99.90;;;;;;5143674;27;20687;-83
2022/04/15 01:11:04;;;;;;;7.23;2.07;;;13.50;99.90;;;;;;5142651;27;20997;-83
2022/04/15 01:13:35;;;;;;;4.17;2.30;;;13.50;99.90;;;;;;5143907;27;20629;-85
2022/04/15 01:16:02;;;;;;;3.03;2.10;;;13.50;99.90;;;;;;5134522;27;21233;-83
2022/04/15 01:18:31;;;;;;;3.40;2.10;;;13.50;99.90;;;;;;5140472;27;20630;-83
2022/04/15 01:20:58;;;;;;;3.57;2.73;;;13.50;99.90;;;;;;5144576;27;20685;-83
2022/04/15 01:23:26;;;;;;;3.10;2.00;;;13.50;99.90;;;;;;5142173;27;20637;-83
2022/04/15 01:25:53;;;;;;;2.40;2.20;;;13.40;99.90;;;;;;5140219;27;20658;-83
2022/04/15 01:28:20;;;;;;;2.60;2.00;;;13.40;99.90;;;;;;5142331;27;20967;-83
2022/04/15 01:30:47;;;;;;;3.20;2.90;;;13.40;99.90;;;;;;5136925;27;21230;-83
2022/04/15 01:33:14;;;;;;;3.30;2.57;;;13.30;99.90;;;;;;5142257;27;20624;-83
2022/04/15 01:35:41;;;;;;;2.73;2.53;;;13.30;99.90;;;;;;5142556;27;20619;-82
2022/04/15 01:38:10;;;;;;;3.07;2.57;;;13.20;99.90;;;;;;5134950;27;20979;-83
2022/04/15 01:40:38;;;;;;;2.40;2.17;;;13.30;99.90;;;;;;5143235;27;20784;-83
2022/04/15 01:43:05;;;;;;;2.50;1.87;;;13.20;99.90;;;;;;5141956;27;20629;-83
2022/04/15 01:45:32;;;;;;;2.80;2.53;;;13.20;99.90;;;;;;5146035;27;20984;-82
2022/04/15 01:47:59;;;;;;;2.73;2.50;;;13.20;99.90;;;;;;5135844;27;20680;-82
2022/04/15 01:50:28;;;;;;;3.30;2.63;;;13.20;99.90;;;;;;5139241;27;20660;-82
2022/04/15 01:52:54;;;;;;;3.00;2.80;;;13.20;99.90;;;;;;5139040;27;20674;-82
2022/04/15 01:55:21;;;;;;;2.50;2.30;;;13.20;99.90;;;;;;5143377;27;20965;-82
2022/04/15 01:57:49;;;;;;;2.70;2.50;;;13.20;99.90;;;;;;5137418;27;20625;-82
2022/04/15 02:00:16;;;;;;;4.10;3.30;;;13.20;99.90;;;;;;5139330;27;21224;-82
2022/04/15 02:02:43;;;;;;;3.37;3.00;;;13.20;99.90;;;;;;5141903;27;20640;-82
2022/04/15 02:05:10;;;;;;;3.30;3.00;;;13.20;99.90;;;;;;5139639;27;20578;-83
2022/04/15 02:07:37;;;;;;;3.70;3.40;;;13.10;99.90;;;;;;5140930;27;20669;-82
2022/04/15 02:10:04;;;;;;;5.43;2.90;;;13.20;99.90;;;;;;5139861;27;20641;-82
2022/04/15 02:12:31;;;;;;;2.70;2.50;;;13.20;99.90;;;;;;5141650;27;20637;-83
2022/04/15 02:14:59;;;;;;;3.50;3.20;;;13.20;99.90;;;;;;5138607;27;20617;-82
2022/04/15 02:17:26;;;;;;;3.20;3.00;;;13.10;99.90;;;;;;5136701;27;20626;-82
2022/04/15 02:19:53;;;;;;;3.17;2.97;;;13.00;99.90;;;;;;5141142;27;20676;-83
2022/04/15 02:22:19;;;;;;;3.80;2.73;;;13.00;99.90;;;;;;5135824;27;20638;-83
2022/04/15 02:24:46;;;;;;;5.03;3.30;;;12.90;99.90;;;;;;5138319;27;20652;-83
2022/04/15 02:27:13;;;;;;;6.37;3.13;;;12.90;99.90;;;;;;5143102;27;20658;-83
2022/04/15 02:29:39;;;;;;;3.90;2.93;;;12.80;99.90;;;;;;5144385;27;20656;-82
2022/04/15 02:32:09;;;;;;;5.00;3.17;;;12.70;99.90;;;;;;5144294;27;20625;-83
2022/04/15 02:34:35;;;;;;;4.93;2.60;;;12.70;99.90;;;;;;5141659;27;20613;-82
2022/04/15 02:37:02;;;;;;;3.63;3.23;;;12.70;99.90;;;;;;5141190;27;21025;-83
2022/04/15 02:39:29;;;;;;;3.00;2.80;;;12.60;99.90;;;;;;5139942;27;20606;-83
2022/04/15 02:41:56;;;;;;;3.70;3.40;;;12.60;99.90;;;;;;5139801;27;20629;-83
2022/04/15 02:44:23;;;;;;;5.47;3.87;;;12.60;99.90;;;;;;5139064;27;21092;-83
2022/04/15 02:46:51;;;;;;;3.60;2.70;;;12.60;99.90;;;;;;5137944;27;20642;-83
2022/04/15 02:49:19;;;;;;;5.03;3.10;;;12.50;99.90;;;;;;5139915;27;20997;-83
2022/04/15 02:51:46;;;;;;;6.93;2.60;;;12.50;99.90;;;;;;5136285;27;20678;-83
2022/04/15 02:54:13;;;;;;;3.10;2.90;;;12.50;99.90;;;;;;5138265;27;20610;-83
2022/04/15 02:56:40;;;;;;;4.97;3.03;;;12.50;99.90;;;;;;5136957;27;20614;-83
2022/04/15 02:59:07;;;;;;;2.90;2.60;;;12.20;99.90;;;;;;5136917;27;20661;-82
2022/04/15 03:01:33;;;;;;;4.70;3.53;;;12.50;99.90;;;;;;5143539;27;20714;-83
2022/04/15 03:04:00;;;;;;;3.70;3.27;;;12.50;99.90;;;;;;5140440;27;20710;-82
2022/04/15 03:06:28;;;;;;;4.13;3.73;;;12.50;99.90;;;;;;5140584;27;20669;-82
2022/04/15 03:08:57;;;;;;;4.07;3.67;;;12.50;99.90;;;;;;5140704;27;20728;-82
2022/04/15 03:11:23;;;;;;;3.37;3.17;;;12.50;99.90;;;;;;5132644;27;20699;-82
2022/04/15 03:13:50;;;;;;;6.70;3.40;;;12.50;99.90;;;;;;5140172;27;20636;-83
2022/04/15 03:16:17;;;;;;;5.37;3.77;;;12.40;99.90;;;;;;5137763;27;20625;-82
2022/04/15 03:18:43;;;;;;;4.43;4.10;;;12.30;99.90;;;;;;5136066;27;20633;-82
2022/04/15 03:21:10;;;;;;;5.60;3.20;;;12.30;99.90;;;;;;5144394;27;20664;-83
2022/04/15 03:23:39;;;;;;;4.30;4.00;;;12.20;99.90;;;;;;5141055;27;20629;-83
2022/04/15 03:26:06;;;;;;;4.00;3.60;;;12.10;99.90;;;;;;5137018;27;20633;-84
2022/04/15 03:28:33;;;;;;;3.40;3.20;;;12.10;99.90;;;;;;5142465;27;20697;-84
2022/04/15 03:30:59;;;;;;;4.87;4.40;;;12.10;99.90;;;;;;5135452;27;20672;-84
2022/04/15 03:33:27;;;;;;;5.60;4.00;;;12.10;99.90;;;;;;5145034;27;20674;-83
2022/04/15 03:35:54;;;;;;;4.43;4.03;;;12.00;99.90;;;;;;5139367;27;21122;-84
2022/04/15 03:38:21;;;;;;;5.10;4.33;;;12.00;99.90;;;;;;5140435;27;20606;-84
2022/04/15 03:40:49;;;;;;;5.00;4.50;;;12.00;99.90;;;;;;5141036;27;20739;-84
2022/04/15 03:43:15;;;;;;;7.13;4.07;;;12.00;99.90;;;;;;5142144;27;20614;-84
2022/04/15 03:45:42;;;;;;;5.40;3.60;;;11.90;99.90;;;;;;5139973;27;20629;-84
2022/04/15 03:48:09;;;;;;;4.23;3.93;;;11.80;99.90;;;;;;5138975;27;20645;-83
2022/04/15 03:50:36;;;;;;;6.47;4.40;;;11.80;99.90;;;;;;5141160;27;20710;-83
2022/04/15 03:53:03;;;;;;;5.40;4.87;;;11.70;99.90;;;;;;5149006;27;20630;-83
2022/04/15 03:55:29;;;;;;;4.20;3.90;;;11.60;99.90;;;;;;5146696;27;20621;-83
2022/04/15 03:57:57;;;;;;;5.53;4.60;;;11.50;99.90;;;;;;5139968;27;20617;-83
2022/04/15 04:00:25;;;;;;;5.77;4.43;;;11.30;99.90;;;;;;5143089;27;21011;-83
2022/04/15 04:02:54;;;;;;;4.60;4.20;;;11.40;99.90;;;;;;5143942;27;20999;-83
2022/04/15 04:05:22;;;;;;;4.77;4.40;;;11.40;99.90;;;;;;5148424;27;20621;-83
2022/04/15 04:07:49;;;;;;;5.70;5.20;;;10.90;99.90;;;;;;5143813;27;20661;-83
2022/04/15 04:10:16;;;;;;;5.47;5.07;;;11.20;99.90;;;;;;5141015;27;21236;-83
2022/04/15 04:12:45;;;;;;;8.23;5.50;;;11.20;99.90;;;;;;5148315;27;20621;-83
2022/04/15 04:15:14;;;;;;;8.07;5.23;;;11.10;99.90;;;;;;5146053;27;21162;-83
2022/04/15 04:17:40;;;;;;;5.73;5.33;;;10.70;99.90;;;;;;5144083;27;20687;-83
2022/04/15 04:20:10;;;;;;;6.27;5.13;;;10.70;99.90;;;;;;5142793;27;21010;-83
2022/04/15 04:22:38;;;;;;;5.60;5.00;;;11.00;99.90;;;;;;5146461;27;20629;-83
2022/04/15 04:25:08;;;;;;;5.67;5.07;;;11.00;99.90;;;;;;5145011;27;20605;-83
2022/04/15 04:27:35;;;;;;;4.60;4.20;;;10.90;99.90;;;;;;5145767;27;20645;-83
2022/04/15 04:30:02;;;;;;;5.03;4.63;;;10.70;99.90;;;;;;5147097;27;20649;-83
2022/04/15 04:32:30;;;;;;;5.50;5.07;;;10.80;99.90;;;;;;5145204;27;20613;-82
2022/04/15 04:34:57;;;;;;;6.30;5.70;;;10.50;99.90;;;;;;5140643;27;20964;-82
2022/04/15 04:37:24;;;;;;;5.53;5.13;;;10.40;99.90;;;;;;5145869;27;20616;-83
2022/04/15 04:39:50;;;;;;;6.63;6.03;;;10.60;99.90;;;;;;5146195;27;21012;-83
2022/04/15 04:42:19;;;;;;;6.40;5.77;;;10.80;99.90;;;;;;5145419;27;20628;-83
2022/04/15 04:44:46;;;;;;;6.23;5.47;;;10.50;99.90;;;;;;5146704;27;20617;-83
2022/04/15 04:47:13;;;;;;;6.83;6.23;;;10.50;99.90;;;;;;5145575;27;20649;-83
2022/04/15 04:49:42;;;;;;;6.13;5.63;;;10.50;99.90;;;;;;5143534;27;21011;-83
2022/04/15 04:52:09;;;;;;;6.57;6.07;;;10.60;99.90;;;;;;5144154;27;20614;-84
2022/04/15 04:54:35;;;;;;;7.37;6.67;;;10.50;99.90;;;;;;5141668;27;20628;-83
2022/04/15 04:57:03;;;;;;;11.70;10.50;;;10.30;99.90;;;;;;5145791;27;20618;-83
2022/04/15 04:59:31;;;;;;;15.20;13.70;;;10.70;99.90;;;;;;5145969;27;20681;-83
2022/04/15 05:01:58;;;;;;;15.97;14.47;;;10.70;99.90;;;;;;5139357;27;20645;-83
2022/04/15 05:04:25;;;;;;;9.97;9.03;;;10.50;99.90;;;;;;5146414;27;20652;-83
2022/04/15 05:06:53;;;;;;;10.63;8.80;;;10.50;99.90;;;;;;5141298;27;20668;-81
2022/04/15 05:09:20;;;;;;;9.33;8.43;;;10.80;99.90;;;;;;5146132;27;20621;-83
2022/04/15 05:11:47;;;;;;;10.40;8.27;;;10.50;99.90;;;;;;5143507;27;20661;-82
2022/04/15 05:14:14;;;;;;;9.97;9.03;;;10.40;99.90;;;;;;5149481;27;20713;-82
2022/04/15 05:16:41;;;;;;;10.90;10.00;;;10.30;99.90;;;;;;5145608;27;20659;-82
2022/04/15 05:19:08;;;;;;;11.70;10.80;;;10.30;99.90;;;;;;5141477;27;20633;-82
2022/04/15 05:21:35;;;;;;;10.70;10.00;;;10.40;99.90;;;;;;5140690;27;20641;-82
2022/04/15 05:24:03;;;;;;;8.33;7.63;;;10.60;99.90;;;;;;5140273;27;20621;-81
2022/04/15 05:26:33;;;;;;;7.97;7.20;;;10.90;99.90;;;;;;5145101;27;20615;-81
2022/04/15 05:29:00;;;;;;;7.70;6.90;;;10.50;99.90;;;;;;5142527;27;20610;-81
2022/04/15 05:31:27;;;;;;;8.00;7.20;;;10.60;99.90;;;;;;5143539;27;20649;-81
2022/04/15 05:33:54;;;;;;;6.90;6.40;;;11.10;99.90;;;;;;5146525;27;20613;-81
2022/04/15 05:36:20;;;;;;;8.67;6.63;;;11.00;99.90;;;;;;5145232;27;20670;-81
2022/04/15 05:38:47;;;;;;;6.90;6.40;;;11.10;99.90;;;;;;5143935;27;20969;-81
2022/04/15 05:41:15;;;;;;;8.40;7.00;;;10.80;99.90;;;;;;5141656;27;20641;-81
2022/04/15 05:43:43;;;;;;;9.23;6.13;;;11.10;99.90;;;;;;5145941;27;20625;-80
2022/04/15 05:46:10;;;;;;;7.30;6.60;;;11.30;99.90;;;;;;5145759;27;20682;-80
2022/04/15 05:48:37;;;;;;;6.57;6.03;;;11.60;99.90;;;;;;5146358;27;20665;-81
2022/04/15 05:51:04;;;;;;;6.37;5.87;;;11.30;99.90;;;;;;5149116;27;21183;-81
2022/04/15 05:53:31;;;;;;;11.63;7.07;;;11.60;99.90;;;;;;5143593;27;20625;-81
2022/04/15 05:55:58;;;;;;;7.80;6.27;;;11.50;99.90;;;;;;5143162;27;20621;-80
2022/04/15 05:58:27;;;;;;;7.20;6.60;;;11.80;99.90;;;;;;5144133;27;20661;-81
2022/04/15 06:00:54;;;;;;;6.93;6.10;;;11.90;99.90;;;;;;5143995;27;20668;-81
2022/04/15 06:03:22;;;;;;;7.17;6.37;;;11.60;99.90;;;;;;5145871;27;20625;-82
2022/04/15 06:05:50;;;;;;;6.77;6.07;;;11.80;99.90;;;;;;5147775;27;20629;-82
2022/04/15 06:08:17;;;;;;;6.60;6.10;;;12.20;99.90;;;;;;5143094;27;21314;-81
2022/04/15 06:10:43;;;;;;;6.90;6.20;;;12.40;99.90;;;;;;5146557;27;21027;-81
2022/04/15 06:13:14;;;;;;;6.70;6.10;;;12.20;99.90;;;;;;5146869;27;20637;-81
2022/04/15 06:15:51;;;;;;;8.23;6.27;;;12.00;99.90;;;;;;5143884;27;21522;-82
2022/04/15 06:18:19;;;;;;;7.50;6.30;;;12.30;99.90;;;;;;5142023;27;20614;-81
2022/04/15 06:20:46;;;;;;;6.60;6.10;;;12.20;99.90;;;;;;5145206;27;21402;-82
2022/04/15 06:23:14;;;;;;;9.07;7.33;;;12.10;99.90;;;;;;5142526;27;20672;-82
2022/04/15 06:25:41;;;;;;;5.80;5.40;;;12.40;99.90;;;;;;5147835;27;20625;-81
2022/04/15 06:28:08;;;;;;;6.47;5.83;;;12.50;99.90;;;;;;5146933;27;20705;-83
2022/04/15 06:30:34;;;;;;;6.60;5.73;;;12.40;99.90;;;;;;5140518;27;20738;-82
2022/04/15 06:33:05;;;;;;;6.00;5.47;;;12.80;99.90;;;;;;5145105;27;21174;-81
2022/04/15 06:35:32;;;;;;;6.97;6.37;;;13.00;99.90;;;;;;5141950;27;20649;-82
2022/04/15 06:37:59;;;;;;;8.00;7.33;;;13.10;99.90;;;;;;5141130;27;20602;-81
2022/04/15 06:40:26;;;;;;;9.63;8.60;;;13.20;99.90;;;;;;5138951;27;20648;-81
2022/04/15 06:42:54;;;;;;;8.00;7.17;;;13.30;99.90;;;;;;5140081;27;20625;-83
2022/04/15 06:45:21;;;;;;;8.27;6.77;;;13.40;99.90;;;;;;5145130;27;20622;-83
2022/04/15 06:47:47;;;;;;;7.10;6.60;;;13.60;99.90;;;;;;5141830;27;20657;-83
2022/04/15 06:50:16;;;;;;;6.37;5.87;;;13.60;99.90;;;;;;5142535;27;20673;-83
2022/04/15 06:52:43;;;;;;;6.10;5.57;;;13.80;99.90;;;;;;5137540;27;20628;-83
2022/04/15 06:55:10;;;;;;;7.37;6.50;;;13.90;99.90;;;;;;5142274;27;20660;-82
2022/04/15 06:57:37;;;;;;;7.30;6.60;;;14.10;99.90;;;;;;5138701;27;21206;-82
2022/04/15 07:00:06;;;;;;;7.30;6.60;;;14.30;99.90;;;;;;5146137;27;20649;-81
2022/04/15 07:02:35;;;;;;;10.77;6.33;;;14.40;99.90;;;;;;5138188;27;20629;-82
2022/04/15 07:05:03;;;;;;;7.67;6.97;;;14.50;99.90;;;;;;5138724;27;20630;-81
2022/04/15 07:07:31;;;;;;;7.90;7.10;;;14.70;99.90;;;;;;5142158;27;20668;-81
2022/04/15 07:09:58;;;;;;;8.40;7.60;;;14.80;99.90;;;;;;5146716;27;20649;-82
2022/04/15 07:12:24;;;;;;;9.30;8.00;;;14.90;99.90;;;;;;5143848;27;20652;-81
2022/04/15 07:14:52;;;;;;;9.17;8.13;;;15.00;99.90;;;;;;5143773;27;20628;-82
2022/04/15 07:17:18;;;;;;;7.63;6.90;;;15.10;99.90;;;;;;5139417;27;20717;-82
2022/04/15 07:19:45;;;;;;;7.97;7.27;;;15.30;99.90;;;;;;5137667;27;20653;-81
2022/04/15 07:22:12;;;;;;;8.00;7.30;;;15.50;99.90;;;;;;5146380;27;20622;-82
2022/04/15 07:24:40;;;;;;;8.60;7.37;;;15.60;99.90;;;;;;5136604;27;20626;-81
2022/04/15 07:27:07;;;;;;;9.03;8.00;;;15.60;99.90;;;;;;5140631;27;20641;-82
2022/04/15 07:29:34;;;;;;;11.23;10.23;;;15.80;99.90;;;;;;5143286;27;21231;-82
2022/04/15 07:32:00;;;;;;;9.23;8.30;;;15.90;99.90;;;;;;5141516;27;20652;-81
2022/04/15 07:34:28;;;;;;;8.23;7.53;;;15.90;99.90;;;;;;5147317;27;21464;-83
2022/04/15 07:36:54;;;;;;;10.23;9.13;;;16.00;99.90;;;;;;5143153;27;20632;-82
2022/04/15 07:39:22;;;;;;;9.53;8.10;;;16.20;99.90;;;;;;5144804;27;20637;-82
2022/04/15 07:41:51;;;;;;;9.13;7.70;;;16.20;99.90;;;;;;5146957;27;20633;-81
2022/04/15 07:44:19;;;;;;;8.90;8.00;;;16.30;99.90;;;;;;5144356;27;20641;-82
2022/04/15 07:46:46;;;;;;;9.43;8.47;;;16.40;99.90;;;;;;5144233;27;20668;-82
2022/04/15 07:49:13;;;;;;;8.80;7.70;;;16.40;99.90;;;;;;5136414;27;20666;-81
2022/04/15 07:51:40;;;;;;;9.43;8.60;;;16.50;99.90;;;;;;5138184;27;20645;-82
2022/04/15 07:54:09;;;;;;;9.47;8.67;;;16.60;99.90;;;;;;5142546;27;20634;-82
2022/04/15 07:56:36;;;;;;;11.67;10.57;;;16.70;99.90;;;;;;5149026;27;20637;-82
2022/04/15 07:59:05;;;;;;;10.70;9.70;;;16.80;99.90;;;;;;5144808;27;20609;-82
2022/04/15 08:01:32;;;;;;;10.33;9.50;;;17.00;99.90;;;;;;5146510;27;20675;-81
2022/04/15 08:04:00;;;;;;;9.97;9.10;;;17.10;99.90;;;;;;5146046;27;20644;-82
2022/04/15 08:06:29;;;;;;;13.23;11.93;;;17.20;99.90;;;;;;5136423;27;20629;-83
2022/04/15 08:08:56;;;;;;;11.47;10.37;;;17.30;99.90;;;;;;5149996;27;20698;-81
2022/04/15 08:11:24;;;;;;;11.70;10.67;;;17.40;99.90;;;;;;5145975;27;20696;-82
2022/04/15 08:13:52;;;;;;;12.13;9.93;;;17.50;99.90;;;;;;5145873;27;20632;-82
2022/04/15 08:16:21;;;;;;;10.73;9.70;;;17.50;99.90;;;;;;5142523;27;20677;-82
2022/04/15 08:18:49;;;;;;;11.03;10.00;;;17.60;99.90;;;;;;5141956;27;20709;-81
2022/04/15 08:21:16;;;;;;;11.20;10.20;;;17.70;99.90;;;;;;5144404;27;20656;-81
2022/04/15 08:23:44;;;;;;;10.40;9.10;;;17.80;99.90;;;;;;5146511;27;20625;-81
2022/04/15 08:26:11;;;;;;;10.80;9.70;;;17.90;99.90;;;;;;5149449;27;20623;-82
2022/04/15 08:28:38;;;;;;;11.60;10.67;;;18.00;99.90;;;;;;5146878;27;20692;-81
2022/04/15 08:31:06;;;;;;;13.50;11.57;;;18.10;99.90;;;;;;5148854;27;20687;-82
2022/04/15 08:33:34;;;;;;;11.13;10.23;;;18.20;99.90;;;;;;5145595;27;20618;-81
2022/04/15 08:36:02;;;;;;;13.00;11.50;;;18.20;99.90;;;;;;5142778;27;20626;-81
2022/04/15 08:38:29;;;;;;;11.83;10.83;;;18.20;99.90;;;;;;5145514;27;20621;-81
2022/04/15 08:40:58;;;;;;;11.57;10.30;;;18.10;99.90;;;;;;5146693;27;20671;-81
2022/04/15 08:43:25;;;;;;;13.40;12.20;;;18.20;99.90;;;;;;5146830;27;20789;-82
2022/04/15 08:45:52;;;;;;;12.07;10.97;;;18.30;99.90;;;;;;5145566;27;20625;-82
2022/04/15 08:48:19;;;;;;;13.07;11.97;;;18.40;99.90;;;;;;5143230;27;20639;-82
2022/04/15 08:50:48;;;;;;;13.07;11.87;;;18.40;99.90;;;;;;5143060;27;21091;-82
2022/04/15 08:53:15;;;;;;;13.30;12.10;;;18.50;99.90;;;;;;5145802;27;20648;-83
2022/04/15 08:55:42;;;;;;;14.60;13.33;;;18.70;99.90;;;;;;5139716;27;20648;-81
2022/04/15 08:58:09;;;;;;;13.17;12.17;;;18.80;99.90;;;;;;5145998;27;20621;-81
2022/04/15 09:00:36;;;;;;;14.43;13.33;;;18.90;99.90;;;;;;5145613;27;20668;-81
2022/04/15 09:03:03;;;;;;;13.77;12.67;;;19.00;99.90;;;;;;5147646;27;20618;-80
2022/04/15 09:05:30;;;;;;;14.37;13.10;;;19.00;99.90;;;;;;5149265;27;20621;-81
2022/04/15 09:08:07;;;;;;;13.07;11.87;;;18.90;99.90;;;;;;5139872;27;20637;-83
2022/04/15 09:10:34;;;;;;;14.83;13.47;;;19.00;99.90;;;;;;5147536;27;20657;-83
2022/04/15 09:13:03;;;;;;;16.73;15.00;;;19.00;99.90;;;;;;5141772;27;20633;-82
2022/04/15 09:15:30;;;;;;;17.93;16.27;;;19.10;99.90;;;;;;5139705;27;20636;-83
2022/04/15 09:18:00;;;;;;;16.57;15.07;;;19.10;99.90;;;;;;5139716;27;20617;-82
2022/04/15 09:20:31;;;;;;;14.67;13.43;;;19.10;99.90;;;;;;5146182;27;20722;-82
2022/04/15 09:23:08;;;;;;;17.43;15.87;;;19.10;99.90;;;;;;5143691;27;20673;-83
2022/04/15 09:25:37;;;;;;;15.97;14.57;;;19.10;99.90;;;;;;5146529;27;20632;-82
2022/04/15 09:28:06;;;;;;;15.00;13.70;;;19.20;99.90;;;;;;5140134;27;20629;-87
2022/04/15 09:30:34;;;;;;;16.43;14.90;;;19.30;99.90;;;;;;5143708;27;20637;-82
2022/04/15 09:33:02;;;;;;;16.60;15.30;;;19.30;99.90;;;;;;5138512;27;21160;-82
2022/04/15 09:35:29;;;;;;;17.20;15.60;;;19.40;99.90;;;;;;5141850;27;21248;-82
2022/04/15 09:38:03;;;;;;;16.63;14.90;;;19.40;99.70;;;;;;5142691;27;20655;-84
2022/04/15 09:40:31;;;;;;;15.77;14.40;;;19.40;97.60;;;;;;5137483;27;20664;-88
2022/04/15 09:43:00;;;;;;;16.47;15.17;;;19.50;98.60;;;;;;5146601;27;20676;-82
2022/04/15 09:45:30;;;;;;;16.57;15.27;;;19.60;97.50;;;;;;5145003;27;21103;-84
2022/04/15 09:47:58;;;;;;;16.10;14.80;;;19.60;97.20;;;;;;5144082;27;21017;-81
2022/04/15 09:50:29;;;;;;;18.33;16.73;;;19.70;98.80;;;;;;5142218;27;21015;-83
2022/04/15 09:53:08;;;;;;;16.00;14.60;;;19.60;98.00;;;;;;5138785;27;20613;-83
2022/04/15 09:55:36;;;;;;;15.90;14.73;;;19.70;98.90;;;;;;5143169;27;21242;-83
2022/04/15 09:58:09;;;;;;;13.10;11.97;;;19.90;98.00;;;;;;5144528;27;20967;-87
2022/04/15 10:00:37;;;;;;;15.10;13.70;;;20.00;97.50;;;;;;5148550;27;21918;-93
2022/04/15 10:03:07;;;;;;;13.60;12.60;;;20.20;95.80;;;;;;5147858;27;20615;-86
2022/04/15 10:05:35;;;;;;;14.73;13.63;;;20.40;94.40;;;;;;5148524;27;20620;-81
2022/04/15 10:08:05;;;;;;;15.23;14.03;;;20.40;92.80;;;;;;5142598;27;21469;-88
2022/04/15 10:10:32;;;;;;;14.50;13.30;;;20.50;92.70;;;;;;5147106;27;20665;-82
2022/04/15 10:13:01;;;;;;;12.50;11.40;;;20.50;92.00;;;;;;5145083;27;20617;-82
2022/04/15 10:15:30;;;;;;;14.37;12.80;;;20.60;92.20;;;;;;5143257;27;20633;-83
2022/04/15 10:17:57;;;;;;;13.10;12.10;;;20.80;91.20;;;;;;5141743;27;20649;-83
2022/04/15 10:20:26;;;;;;;14.17;13.07;;;21.10;91.30;;;;;;5148037;27;21300;-83
2022/04/15 10:22:54;;;;;;;12.60;11.60;;;21.20;88.40;;;;;;5146087;27;20633;-83
2022/04/15 10:25:21;;;;;;;15.53;14.17;;;21.20;86.20;;;;;;5147521;27;20625;-84
2022/04/15 10:27:48;;;;;;;14.30;13.20;;;21.30;87.20;;;;;;5142151;27;20765;-84
2022/04/15 10:30:18;;;;;;;14.97;13.77;;;21.40;89.00;;;;;;5142002;27;20688;-84
2022/04/15 10:32:51;;;;;;;12.43;11.43;;;21.60;87.60;;;;;;5140702;27;20693;-82
2022/04/15 10:35:23;;;;;;;11.53;10.63;;;21.60;87.50;;;;;;5142396;27;20984;-83
2022/04/15 10:38:00;;;;;;;13.90;12.90;;;21.70;87.50;;;;;;5140178;27;20629;-82
2022/04/15 10:40:30;;;;;;;13.17;11.63;;;21.90;86.20;;;;;;5143775;27;20672;-83
2022/04/15 10:43:05;;;;;;;11.70;10.80;;;22.00;85.90;;;;;;5146200;27;20658;-82
2022/04/15 10:45:35;;;;;;;12.63;11.73;;;22.20;84.90;;;;;;5136959;27;20710;-83
2022/04/15 10:48:05;;;;;;;12.27;11.27;;;22.30;82.10;;;;;;5138113;27;21179;-83
2022/04/15 10:50:34;;;;;;;10.93;10.10;;;22.10;83.50;;;;;;5142278;27;20672;-82
2022/04/15 10:53:18;;;;;;;11.00;9.90;;;22.10;84.10;;;;;;5139184;27;20621;-83
2022/04/15 10:55:48;;;;;;;12.33;11.23;;;22.10;82.10;;;;;;5143681;27;20690;-83
2022/04/15 10:58:16;;;;;;;12.03;11.03;;;22.40;80.20;;;;;;5142430;27;21580;-83
2022/04/15 11:03:31;;;;;;;11.47;10.27;;;22.90;77.00;;;;;;5138259;27;20612;-82
2022/04/15 11:06:00;;;;;;;8.90;8.13;;;23.20;73.10;;;;;;5141658;27;20611;-83
2022/04/15 11:08:28;;;;;;;11.20;10.10;;;23.30;72.70;;;;;;5136055;27;20612;-82
2022/04/15 11:11:03;;;;;;;9.67;9.00;;;23.40;71.40;;;;;;5144589;27;20750;-82
2022/04/15 11:14:03;;;;;;;9.93;9.13;;;23.40;71.40;;;;;;5143439;27;20677;-82
2022/04/15 11:16:48;;;;;;;8.30;7.60;;;23.50;69.50;;;;;;5141609;27;20626;-82
2022/04/15 11:19:23;;;;;;;9.77;8.97;;;23.50;70.00;;;;;;5141608;27;20777;-82
2022/04/15 11:21:53;;;;;;;9.50;8.80;;;23.50;68.30;;;;;;5143508;27;20625;-83
2022/04/15 11:24:25;;;;;;;10.30;9.50;;;23.60;67.70;;;;;;5142625;27;20626;-82
2022/04/15 11:26:58;;;;;;;7.80;7.30;;;23.60;67.30;;;;;;5144053;27;20648;-82
2022/04/15 11:29:29;;;;;;;6.80;6.10;;;23.80;64.20;;;;;;5139156;27;20649;-82
2022/04/15 11:31:59;;;;;;;6.90;6.30;;;24.00;64.80;;;;;;5137905;27;21389;-83
2022/04/15 11:34:28;;;;;;;8.03;7.33;;;24.40;63.10;;;;;;5135961;27;20637;-83
2022/04/15 11:36:56;;;;;;;9.90;9.10;;;24.60;61.70;;;;;;5140931;27;20613;-82
2022/04/15 11:39:24;;;;;;;8.20;7.60;;;24.60;60.30;;;;;;5141512;27;20777;-82
2022/04/15 11:41:52;;;;;;;9.73;8.93;;;24.70;60.80;;;;;;5135151;27;20660;-82
2022/04/15 11:44:20;;;;;;;9.30;8.60;;;24.70;61.10;;;;;;5143673;27;20716;-82
2022/04/15 11:46:48;;;;;;;9.60;8.60;;;24.80;60.80;;;;;;5138499;27;20613;-83
2022/04/15 11:49:18;;;;;;;7.17;6.47;;;25.10;60.60;;;;;;5136804;27;20708;-83
2022/04/15 11:51:48;;;;;;;7.60;6.80;;;25.60;61.40;;;;;;5135154;27;20618;-82
2022/04/15 11:54:15;;;;;;;7.67;7.07;;;26.00;60.70;;;;;;5140985;27;20637;-82
2022/04/15 11:56:43;;;;;;;11.10;8.53;;;26.40;58.60;;;;;;5140564;27;21195;-83
2022/04/15 11:59:11;;;;;;;8.20;7.60;;;26.30;57.50;;;;;;5137217;27;20687;-82
2022/04/15 12:01:42;;;;;;;9.37;8.50;;;26.10;57.20;;;;;;5137410;27;20755;-81
2022/04/15 12:04:09;;;;;;;10.30;9.50;;;26.00;57.30;;;;;;5136099;27;20629;-81
2022/04/15 12:06:40;;;;;;;9.40;8.50;;;25.90;58.00;;;;;;5139379;27;20626;-81
2022/04/15 12:09:11;;;;;;;8.90;8.20;;;25.90;57.80;;;;;;5140981;27;20775;-81
2022/04/15 12:11:38;;;;;;;7.40;6.80;;;26.00;58.00;;;;;;5140008;27;20636;-82
2022/04/15 12:14:07;;;;;;;9.13;7.10;;;26.30;57.70;;;;;;5142314;27;20614;-82
2022/04/15 12:16:38;;;;;;;8.10;7.40;;;26.70;57.90;;;;;;5145055;27;20620;-82
2022/04/15 12:19:06;;;;;;;9.63;8.93;;;27.00;55.80;;;;;;5143664;27;20653;-83
2022/04/15 12:21:35;;;;;;;9.17;8.20;;;27.00;54.50;;;;;;5144147;27;20633;-81
2022/04/15 12:24:04;;;;;;;6.70;6.10;;;26.80;55.20;;;;;;5141555;27;20620;-81
2022/04/15 12:26:43;;;;;;;8.63;7.70;;;26.80;55.70;;;;;;5141704;27;21270;-81
2022/04/15 12:31:54;;;;;;;6.30;5.73;;;27.00;54.40;;;;;;5145758;27;20566;-81
2022/04/15 12:34:31;;;;;;;5.80;5.30;;;26.80;52.70;;;;;;5145127;27;20636;-82
2022/04/15 12:36:58;;;;;;;8.50;7.67;;;26.40;52.00;;;;;;5142784;27;20728;-82
2022/04/15 12:39:25;;;;;;;9.37;8.57;;;25.80;52.90;;;;;;5142547;27;21214;-81
2022/04/15 12:41:54;;;;;;;9.03;8.40;;;25.10;55.20;;;;;;5146935;27;20633;-82
2022/04/15 12:44:26;;;;;;;8.07;7.47;;;25.00;56.80;;;;;;5143902;27;20629;-81
2022/04/15 12:46:58;;;;;;;9.37;8.53;;;25.40;57.50;;;;;;5142422;27;20617;-82
2022/04/15 12:49:28;;;;;;;9.70;8.80;;;25.70;55.20;;;;;;5143402;27;20684;-81
2022/04/15 12:52:07;;;;;;;8.40;7.80;;;25.70;54.80;;;;;;5136425;27;20724;-81